Terminal Aerodrome Forecast
Issued by NWS

Home | Current Version | Previous Version | Text Only | Print | Product List | Glossary On
Versions: 1 2 3 4 5 6 7 8 9 10 11 12 13 14 15 16
000
FTUS44 KBMX 252339
TAFTCL
TAF
KTCL 252339Z 2600/2624 17006KT P6SM VCSH OVC040
     FM260900 17005KT P6SM VCSH OVC020
     FM261100 17004KT 4SM BR VCSH OVC008
     FM261700 20009KT P6SM OVC025
     FM262000 20009KT P6SM BKN050=

USA.gov is the U.S. government's official web portal to all federal, state and local government web resources and services.